createdAt,value
2022-07-28T00:01:06.265Z,6.47
2022-07-28T00:03:33.299Z,7.23
2022-07-28T00:06:00.419Z,6.97
2022-07-28T00:08:27.412Z,7.83
2022-07-28T00:10:54.464Z,7.27
2022-07-28T00:13:22.444Z,7.20
2022-07-28T00:15:49.463Z,7.80
2022-07-28T00:18:16.503Z,7.97
2022-07-28T00:20:43.548Z,8.23
2022-07-28T00:23:10.592Z,8.07
2022-07-28T00:25:37.624Z,7.83
2022-07-28T00:28:04.830Z,8.97
2022-07-28T00:30:31.857Z,7.67
2022-07-28T00:32:59.112Z,8.07
2022-07-28T00:35:30.926Z,7.90
2022-07-28T00:38:00.052Z,8.83
2022-07-28T00:40:47.308Z,9.70
2022-07-28T00:43:14.869Z,7.97
2022-07-28T00:45:42.117Z,8.83
2022-07-28T00:48:09.422Z,9.30
2022-07-28T00:50:40.286Z,9.60
2022-07-28T00:53:08.864Z,8.93
2022-07-28T00:56:05.594Z,9.27
2022-07-28T00:58:27.448Z,9.50
2022-07-28T01:00:55.687Z,9.70
2022-07-28T01:03:23.872Z,10.27
2022-07-28T01:06:12.856Z,9.43
2022-07-28T01:08:51.791Z,10.00
2022-07-28T01:11:30.122Z,10.67
2022-07-28T01:14:16.345Z,10.00
2022-07-28T01:16:49.838Z,10.10
2022-07-28T01:19:48.492Z,9.67
2022-07-28T01:22:23.052Z,11.83
2022-07-28T01:25:16.578Z,11.60
2022-07-28T01:28:08.228Z,11.77
2022-07-28T01:30:48.773Z,10.97
2022-07-28T01:33:25.006Z,10.80
2022-07-28T01:36:01.971Z,11.80
2022-07-28T01:38:31.936Z,10.67
2022-07-28T01:41:01.254Z,10.80
2022-07-28T01:43:31.684Z,10.67
2022-07-28T01:46:00.014Z,9.40
2022-07-28T01:48:28.834Z,10.17
2022-07-28T01:50:57.386Z,10.63
2022-07-28T01:53:26.177Z,10.20
2022-07-28T01:55:54.668Z,9.97
2022-07-28T01:58:24.984Z,10.83
2022-07-28T02:00:55.087Z,10.33
2022-07-28T02:03:24.327Z,10.50
2022-07-28T02:05:54.069Z,10.63
2022-07-28T02:08:23.555Z,11.03
2022-07-28T02:11:12.666Z,10.93
2022-07-28T02:13:42.305Z,11.57
2022-07-28T02:16:11.391Z,11.80
2022-07-28T02:18:40.037Z,13.03
2022-07-28T02:21:08.147Z,12.87
2022-07-28T02:23:35.857Z,13.10
2022-07-28T02:26:08.410Z,11.60
2022-07-28T02:28:36.385Z,12.17
2022-07-28T02:31:10.955Z,12.10
2022-07-28T02:34:00.077Z,13.07
2022-07-28T02:36:41.540Z,11.37
2022-07-28T02:39:17.163Z,12.43
2022-07-28T02:41:44.730Z,12.17
2022-07-28T02:44:25.770Z,12.17
2022-07-28T02:46:55.872Z,11.00
2022-07-28T02:49:33.861Z,11.73
2022-07-28T02:52:03.476Z,12.63
2022-07-28T02:54:32.968Z,14.13
2022-07-28T02:57:00.992Z,13.30
2022-07-28T02:59:29.265Z,12.43
2022-07-28T03:01:57.258Z,12.77
2022-07-28T03:04:43.704Z,12.43
2022-07-28T03:07:11.364Z,12.73
2022-07-28T03:09:45.802Z,12.03
2022-07-28T03:12:13.327Z,12.97
2022-07-28T03:14:40.586Z,12.60
2022-07-28T03:17:08.275Z,13.27
2022-07-28T03:19:35.430Z,13.83
2022-07-28T03:22:02.643Z,13.13
2022-07-28T03:24:43.399Z,13.30
2022-07-28T03:27:31.175Z,12.03
2022-07-28T03:30:04.057Z,12.83
2022-07-28T03:32:34.284Z,12.10
2022-07-28T03:35:01.636Z,11.53
2022-07-28T03:38:10.227Z,12.43
2022-07-28T03:40:38.818Z,12.03
2022-07-28T03:43:08.794Z,11.53
2022-07-28T03:45:36.428Z,11.63
2022-07-28T03:48:08.352Z,12.07
2022-07-28T03:50:35.446Z,12.93
2022-07-28T03:53:05.254Z,13.33
2022-07-28T03:55:32.270Z,12.27
2022-07-28T03:57:59.419Z,12.37
2022-07-28T04:00:26.412Z,11.97
2022-07-28T04:02:53.633Z,13.03
2022-07-28T04:05:20.935Z,12.43
2022-07-28T04:07:48.259Z,11.60
2022-07-28T04:10:17.356Z,12.87
2022-07-28T04:12:53.606Z,13.67
2022-07-28T04:15:22.018Z,12.90
2022-07-28T04:17:50.124Z,12.03
2022-07-28T04:20:18.677Z,12.83
2022-07-28T04:22:47.172Z,13.27
2022-07-28T04:25:15.790Z,13.13
2022-07-28T04:27:44.607Z,12.40
2022-07-28T04:30:17.506Z,12.17
2022-07-28T04:32:46.165Z,11.43
2022-07-28T04:35:17.355Z,11.07
2022-07-28T04:37:45.966Z,11.33
2022-07-28T04:40:13.847Z,11.87
2022-07-28T04:42:41.762Z,12.53
2022-07-28T04:45:11.721Z,12.33
2022-07-28T04:47:39.914Z,15.07
2022-07-28T04:50:09.823Z,14.83
2022-07-28T04:52:38.354Z,14.23
2022-07-28T04:55:06.832Z,14.37
2022-07-28T04:57:34.285Z,14.93
2022-07-28T05:00:01.753Z,15.10
2022-07-28T05:02:28.904Z,15.07
2022-07-28T05:04:56.262Z,15.93
2022-07-28T05:07:23.365Z,15.73
2022-07-28T05:09:50.450Z,15.23
2022-07-28T05:12:17.445Z,16.13
2022-07-28T05:14:44.429Z,15.73
2022-07-28T05:17:11.674Z,15.80
2022-07-28T05:19:40.718Z,15.90
2022-07-28T05:22:07.784Z,14.93
2022-07-28T05:24:34.799Z,14.57
2022-07-28T05:27:01.943Z,14.90
2022-07-28T05:29:40.469Z,15.30
2022-07-28T05:32:17.140Z,14.00
2022-07-28T05:34:48.047Z,12.90
2022-07-28T05:37:15.068Z,11.90
2022-07-28T05:39:42.294Z,11.43
2022-07-28T05:42:09.288Z,9.77
2022-07-28T05:44:38.497Z,10.00
2022-07-28T05:47:06.547Z,9.03
2022-07-28T05:49:33.871Z,9.10
2022-07-28T05:52:01.208Z,9.00
2022-07-28T05:54:28.435Z,8.70
2022-07-28T05:56:55.445Z,8.03
2022-07-28T05:59:22.497Z,8.50
2022-07-28T06:01:49.592Z,8.33
2022-07-28T06:04:32.365Z,8.40
2022-07-28T06:06:59.626Z,9.20
2022-07-28T06:09:26.668Z,9.80
2022-07-28T06:11:53.645Z,9.13
2022-07-28T06:14:20.733Z,10.33
2022-07-28T06:16:51.269Z,9.93
2022-07-28T06:19:19.252Z,10.27
2022-07-28T06:21:47.677Z,9.93
2022-07-28T06:24:15.322Z,9.60
2022-07-28T06:26:44.883Z,9.83
2022-07-28T06:29:12.514Z,9.67
2022-07-28T06:31:40.189Z,9.77
2022-07-28T06:34:07.580Z,9.90
2022-07-28T06:36:34.579Z,9.23
2022-07-28T06:39:02.260Z,9.80
2022-07-28T06:41:29.445Z,9.73
2022-07-28T06:43:56.525Z,9.70
2022-07-28T06:46:23.694Z,9.90
2022-07-28T06:48:50.944Z,9.60
2022-07-28T06:51:20.046Z,10.13
2022-07-28T06:53:48.750Z,10.37
2022-07-28T06:56:17.032Z,9.80
2022-07-28T06:58:47.126Z,9.20
2022-07-28T07:01:15.632Z,9.53
2022-07-28T07:03:43.694Z,9.67
2022-07-28T07:06:11.103Z,9.40
2022-07-28T07:08:38.657Z,8.93
2022-07-28T07:11:06.009Z,8.33
2022-07-28T07:13:33.355Z,8.90
2022-07-28T07:16:00.836Z,9.10
2022-07-28T07:18:27.954Z,8.90
2022-07-28T07:20:57.639Z,9.37
2022-07-28T07:23:24.850Z,9.53
2022-07-28T07:25:51.922Z,9.33
2022-07-28T07:28:18.918Z,9.07
2022-07-28T07:30:45.984Z,9.63
2022-07-28T07:33:13.049Z,8.73
2022-07-28T07:35:40.118Z,14.53
2022-07-28T07:38:07.250Z,10.47
2022-07-28T07:40:34.302Z,9.57
2022-07-28T07:43:01.454Z,9.90
2022-07-28T07:45:28.467Z,12.33
2022-07-28T07:47:55.504Z,23.73
2022-07-28T07:50:22.624Z,8.73
2022-07-28T07:52:52.361Z,8.27
2022-07-28T07:55:19.487Z,7.97
2022-07-28T07:57:46.592Z,8.60
2022-07-28T08:00:28.920Z,8.37
2022-07-28T08:02:58.092Z,8.33
2022-07-28T08:05:35.488Z,7.90
2022-07-28T08:08:05.237Z,6.97
2022-07-28T08:10:33.918Z,7.87
2022-07-28T08:13:01.243Z,6.90
2022-07-28T08:15:28.374Z,7.33
2022-07-28T08:17:55.452Z,7.20
2022-07-28T08:20:22.839Z,7.00
2022-07-28T08:22:52.031Z,6.10
2022-07-28T08:25:20.082Z,5.77
2022-07-28T08:27:47.432Z,6.23
2022-07-28T08:30:15.331Z,6.73
2022-07-28T08:32:47.067Z,6.93
2022-07-28T08:35:40.395Z,5.83
2022-07-28T08:38:08.031Z,6.83
2022-07-28T08:40:38.233Z,6.10
2022-07-28T08:43:34.375Z,7.00
2022-07-28T08:46:04.267Z,7.30
2022-07-28T08:48:33.195Z,6.63
2022-07-28T08:51:04.373Z,5.83
2022-07-28T08:53:32.836Z,5.33
2022-07-28T08:56:05.578Z,4.77
2022-07-28T08:58:34.204Z,4.60
2022-07-28T09:01:01.838Z,4.90
2022-07-28T09:03:29.948Z,4.33
2022-07-28T09:05:57.980Z,5.20
2022-07-28T09:08:25.933Z,4.70
2022-07-28T09:10:53.303Z,4.80
2022-07-28T09:13:20.416Z,4.37
2022-07-28T09:15:48.608Z,4.63
2022-07-28T09:18:17.431Z,4.47
2022-07-28T09:20:45.277Z,4.37
2022-07-28T09:23:42.105Z,4.60
2022-07-28T09:26:11.749Z,4.50
2022-07-28T09:28:58.370Z,4.73
2022-07-28T09:31:27.581Z,4.70
2022-07-28T09:33:57.926Z,4.37
2022-07-28T09:36:25.049Z,4.50
2022-07-28T09:38:52.625Z,4.67
2022-07-28T09:41:21.960Z,4.43
2022-07-28T09:43:54.910Z,4.70
2022-07-28T09:46:24.831Z,4.00
2022-07-28T09:48:52.458Z,4.47
2022-07-28T09:51:26.301Z,4.67
2022-07-28T09:54:05.687Z,4.43
2022-07-28T09:56:32.887Z,4.63
2022-07-28T09:59:00.683Z,4.27
2022-07-28T10:01:35.812Z,4.93
2022-07-28T10:04:04.613Z,4.70
2022-07-28T10:06:33.632Z,5.00
2022-07-28T10:09:02.762Z,4.60
2022-07-28T10:11:30.715Z,4.10
2022-07-28T10:14:06.389Z,4.70
2022-07-28T10:16:42.685Z,4.57
2022-07-28T10:19:10.183Z,5.03
2022-07-28T10:21:44.395Z,5.17
2022-07-28T10:24:20.142Z,4.80
2022-07-28T10:26:48.250Z,4.93
2022-07-28T10:29:21.742Z,5.30
2022-07-28T10:31:54.974Z,4.57
2022-07-28T10:34:42.127Z,4.70
2022-07-28T10:37:13.170Z,4.60
2022-07-28T10:39:58.275Z,4.40
2022-07-28T10:42:25.712Z,5.10
2022-07-28T10:44:54.331Z,4.63
2022-07-28T10:47:23.576Z,4.70
2022-07-28T10:49:51.590Z,5.17
2022-07-28T10:52:45.641Z,4.10
2022-07-28T10:55:44.419Z,4.77
2022-07-28T10:58:24.999Z,4.57
2022-07-28T11:00:57.915Z,4.53
2022-07-28T11:03:43.842Z,4.67
2022-07-28T11:06:28.516Z,4.20
2022-07-28T11:08:57.650Z,4.70
2022-07-28T11:11:50.095Z,4.40
2022-07-28T11:14:24.458Z,4.43
2022-07-28T11:17:00.891Z,4.90
2022-07-28T11:20:07.119Z,4.57
2022-07-28T11:22:33.233Z,4.47
2022-07-28T11:25:19.209Z,4.37
2022-07-28T11:27:50.599Z,4.30
2022-07-28T11:30:32.943Z,4.60
2022-07-28T11:33:01.217Z,4.10
2022-07-28T11:35:30.267Z,4.90
2022-07-28T11:38:03.861Z,3.93
2022-07-28T11:40:34.610Z,4.73
2022-07-28T11:43:36.920Z,4.57
2022-07-28T11:46:10.124Z,4.50
2022-07-28T11:48:40.510Z,4.73
2022-07-28T11:51:07.627Z,4.53
2022-07-28T11:53:45.553Z,4.40
2022-07-28T11:56:29.228Z,4.43
2022-07-28T11:59:01.449Z,4.00
2022-07-28T12:01:32.043Z,4.13
2022-07-28T12:04:00.306Z,4.23
2022-07-28T12:06:35.879Z,4.10
2022-07-28T12:09:06.521Z,4.30
2022-07-28T12:11:35.707Z,4.87
2022-07-28T12:14:17.192Z,4.10
2022-07-28T12:16:49.654Z,4.10
2022-07-28T12:19:20.817Z,4.17
2022-07-28T12:21:51.794Z,4.33
2022-07-28T12:24:30.591Z,3.80
2022-07-28T12:27:00.394Z,4.17
2022-07-28T12:29:32.184Z,4.10
2022-07-28T12:32:04.980Z,3.83
2022-07-28T12:34:35.101Z,3.97
2022-07-28T12:37:04.613Z,4.27
2022-07-28T12:39:36.895Z,4.17
2022-07-28T12:42:05.723Z,4.27
2022-07-28T12:44:38.057Z,4.60
2022-07-28T12:47:07.864Z,4.40
2022-07-28T12:49:36.290Z,3.93
2022-07-28T12:52:24.424Z,3.90
2022-07-28T12:54:54.629Z,3.97
2022-07-28T12:57:48.743Z,4.07
2022-07-28T13:00:19.963Z,3.20
2022-07-28T13:02:48.945Z,3.70
2022-07-28T13:05:33.116Z,3.70
2022-07-28T13:08:05.695Z,3.67
2022-07-28T13:10:33.417Z,3.70
2022-07-28T13:13:06.935Z,3.70
2022-07-28T13:15:33.997Z,4.20
2022-07-28T13:18:01.353Z,3.90
2022-07-28T13:20:28.729Z,4.03
2022-07-28T13:22:57.486Z,3.90
2022-07-28T13:25:24.763Z,3.40
2022-07-28T13:27:55.455Z,3.90
2022-07-28T13:30:23.864Z,3.40
2022-07-28T13:32:51.192Z,4.07
2022-07-28T13:35:19.143Z,4.27
2022-07-28T13:37:48.904Z,3.97
2022-07-28T13:40:16.026Z,3.80
2022-07-28T13:42:53.414Z,3.97
2022-07-28T13:45:24.478Z,3.20
2022-07-28T13:47:52.391Z,3.90
2022-07-28T13:50:21.021Z,3.33
2022-07-28T13:52:48.593Z,3.93
2022-07-28T13:55:20.504Z,3.47
2022-07-28T13:57:50.515Z,3.70
2022-07-28T14:00:19.531Z,4.30
2022-07-28T14:02:50.190Z,4.03
2022-07-28T14:05:17.378Z,3.43
2022-07-28T14:07:48.443Z,3.50
2022-07-28T14:10:17.888Z,3.73
2022-07-28T14:12:46.211Z,3.80
2022-07-28T14:15:14.056Z,4.13
2022-07-28T14:17:43.414Z,3.37
2022-07-28T14:20:14.260Z,4.00
2022-07-28T14:22:42.646Z,3.63
2022-07-28T14:25:10.339Z,3.70
2022-07-28T14:27:37.634Z,3.93
2022-07-28T14:30:05.700Z,3.47
2022-07-28T14:32:33.115Z,3.77
2022-07-28T14:35:01.963Z,4.50
2022-07-28T14:37:36.208Z,4.50
2022-07-28T14:40:08.707Z,5.13
2022-07-28T14:42:35.895Z,5.13
2022-07-28T14:45:05.528Z,4.87
2022-07-28T14:47:44.720Z,5.67
2022-07-28T14:50:13.360Z,4.77
2022-07-28T14:52:40.674Z,5.20
2022-07-28T14:55:12.438Z,4.20
2022-07-28T14:57:51.812Z,4.90
2022-07-28T15:00:22.776Z,4.93
2022-07-28T15:02:51.694Z,4.83
2022-07-28T15:05:19.989Z,4.37
2022-07-28T15:07:49.470Z,4.10
2022-07-28T15:10:16.675Z,3.70
2022-07-28T15:12:44.660Z,3.83
2022-07-28T15:15:12.913Z,3.67
2022-07-28T15:17:40.103Z,3.83
2022-07-28T15:20:08.680Z,3.10
2022-07-28T15:22:35.732Z,4.57
2022-07-28T15:25:04.112Z,3.73
2022-07-28T15:27:33.659Z,3.47
2022-07-28T15:30:02.914Z,3.63
2022-07-28T15:32:31.302Z,3.30
2022-07-28T15:34:59.278Z,4.77
2022-07-28T15:37:28.088Z,4.50
2022-07-28T15:39:55.181Z,5.60
2022-07-28T15:42:22.324Z,5.27
2022-07-28T15:44:49.445Z,3.63
2022-07-28T15:47:16.698Z,3.30
2022-07-28T15:49:43.770Z,3.50
2022-07-28T15:52:11.128Z,3.70
2022-07-28T15:54:38.277Z,3.17
2022-07-28T15:57:05.340Z,3.60
2022-07-28T15:59:49.623Z,3.43
2022-07-28T16:02:18.669Z,3.90
2022-07-28T16:04:47.211Z,3.70
2022-07-28T16:07:23.427Z,3.03
2022-07-28T16:09:52.144Z,3.03
2022-07-28T16:12:19.402Z,3.53
2022-07-28T16:14:46.593Z,3.67
2022-07-28T16:17:13.647Z,2.90
2022-07-28T16:19:49.975Z,3.57
2022-07-28T16:22:18.947Z,3.33
2022-07-28T16:24:46.657Z,3.57
2022-07-28T16:27:14.680Z,3.67
2022-07-28T16:29:42.055Z,3.20
2022-07-28T16:32:09.232Z,2.97
2022-07-28T16:34:36.269Z,3.70
2022-07-28T16:37:05.058Z,3.30
2022-07-28T16:39:34.454Z,3.37
2022-07-28T16:42:02.877Z,3.03
2022-07-28T16:44:30.701Z,3.20
2022-07-28T16:46:58.269Z,3.23
2022-07-28T16:49:25.598Z,3.20
2022-07-28T16:51:52.939Z,3.17
2022-07-28T16:54:20.539Z,3.10
2022-07-28T16:56:48.272Z,3.50
2022-07-28T16:59:15.338Z,3.33
2022-07-28T17:01:46.297Z,3.23
2022-07-28T17:04:15.520Z,2.93
2022-07-28T17:06:42.929Z,3.10
2022-07-28T17:09:10.882Z,3.47
2022-07-28T17:11:38.138Z,3.57
2022-07-28T17:16:46.303Z,3.13
2022-07-28T17:19:13.310Z,3.17
2022-07-28T17:21:40.361Z,3.20
2022-07-28T17:24:08.435Z,2.90
2022-07-28T17:29:23.018Z,3.27
2022-07-28T17:31:50.251Z,3.30
2022-07-28T17:34:17.992Z,3.60
2022-07-28T17:36:45.746Z,2.90
2022-07-28T17:39:13.190Z,2.90
2022-07-28T17:41:40.323Z,2.80
2022-07-28T17:44:07.338Z,3.00
2022-07-28T17:46:35.142Z,2.83
2022-07-28T17:49:03.404Z,3.10
2022-07-28T17:51:30.850Z,3.50
2022-07-28T17:53:58.066Z,3.20
2022-07-28T17:56:25.395Z,3.30
2022-07-28T17:58:53.168Z,2.80
2022-07-28T18:01:20.271Z,3.20
2022-07-28T18:03:56.870Z,3.53
2022-07-28T18:06:32.511Z,2.70
2022-07-28T18:09:05.404Z,3.23
2022-07-28T18:11:57.022Z,2.90
2022-07-28T18:14:27.256Z,2.60
2022-07-28T18:16:54.709Z,2.90
2022-07-28T18:19:22.060Z,3.43
2022-07-28T18:21:49.569Z,2.83
2022-07-28T18:24:17.267Z,2.90
2022-07-28T18:26:44.574Z,2.90
2022-07-28T18:29:11.745Z,2.70
2022-07-28T18:31:45.462Z,3.13
2022-07-28T18:34:14.277Z,4.03
2022-07-28T18:36:41.590Z,2.93
2022-07-28T18:39:08.683Z,3.30
2022-07-28T18:41:46.711Z,3.30
2022-07-28T18:44:16.998Z,3.33
2022-07-28T18:46:44.728Z,3.60
2022-07-28T18:49:12.232Z,3.37
2022-07-28T18:51:39.396Z,3.23
2022-07-28T18:54:11.851Z,3.10
2022-07-28T18:56:38.960Z,3.67
2022-07-28T18:59:05.950Z,3.47
2022-07-28T19:01:33.124Z,3.53
2022-07-28T19:04:00.548Z,2.80
2022-07-28T19:06:29.191Z,3.83
2022-07-28T19:08:56.350Z,3.33
2022-07-28T19:11:23.330Z,3.30
2022-07-28T19:13:50.447Z,3.37
2022-07-28T19:16:18.962Z,3.80
2022-07-28T19:18:46.152Z,3.50
2022-07-28T19:21:13.704Z,3.70
2022-07-28T19:23:40.888Z,3.20
2022-07-28T19:26:08.026Z,3.30
2022-07-28T19:28:36.145Z,3.43
2022-07-28T19:31:10.159Z,3.90
2022-07-28T19:33:40.185Z,3.63
2022-07-28T19:36:11.794Z,3.50
2022-07-28T19:38:38.915Z,3.20
2022-07-28T19:41:05.974Z,3.63
2022-07-28T19:43:35.107Z,3.80
2022-07-28T19:46:02.805Z,3.80
2022-07-28T19:48:29.968Z,3.67
2022-07-28T19:50:57.126Z,3.40
2022-07-28T19:53:25.334Z,4.67
2022-07-28T19:55:59.528Z,4.17
2022-07-28T19:58:26.761Z,3.43
2022-07-28T20:00:56.277Z,3.80
2022-07-28T20:04:02.149Z,4.17
2022-07-28T20:06:11.764Z,3.83
2022-07-28T20:08:39.356Z,3.80
2022-07-28T20:11:06.979Z,3.83
2022-07-28T20:13:34.382Z,3.73
2022-07-28T20:16:01.432Z,3.63
2022-07-28T20:18:28.459Z,3.93
2022-07-28T20:20:55.586Z,4.20
2022-07-28T20:23:22.792Z,3.93
2022-07-28T20:25:49.825Z,4.20
2022-07-28T20:28:16.887Z,4.53
2022-07-28T20:30:44.029Z,3.60
2022-07-28T20:33:11.157Z,4.70
2022-07-28T20:35:38.146Z,4.23
2022-07-28T20:38:07.443Z,4.30
2022-07-28T20:40:37.399Z,4.50
2022-07-28T20:43:04.392Z,4.07
2022-07-28T20:45:31.905Z,4.20
2022-07-28T20:47:58.962Z,4.20
2022-07-28T20:50:26.142Z,4.03
2022-07-28T20:52:53.226Z,4.63
2022-07-28T20:55:20.805Z,4.17
2022-07-28T20:57:53.439Z,3.87
2022-07-28T21:00:21.024Z,3.80
2022-07-28T21:02:48.215Z,4.43
2022-07-28T21:05:26.716Z,3.80
2022-07-28T21:08:06.499Z,4.67
2022-07-28T21:10:36.367Z,4.20
2022-07-28T21:13:03.579Z,4.40
2022-07-28T21:15:31.006Z,4.70
2022-07-28T21:17:59.097Z,5.00
2022-07-28T21:20:26.237Z,4.83
2022-07-28T21:22:53.300Z,4.03
2022-07-28T21:25:20.607Z,3.67
2022-07-28T21:28:13.810Z,4.13
2022-07-28T21:30:40.819Z,4.10
2022-07-28T21:33:07.926Z,4.60
2022-07-28T21:35:34.969Z,4.47
2022-07-28T21:38:01.980Z,4.87
2022-07-28T21:40:29.148Z,4.50
2022-07-28T21:42:56.259Z,4.20
2022-07-28T21:45:23.469Z,4.57
2022-07-28T21:47:50.662Z,4.67
2022-07-28T21:50:17.764Z,5.23
2022-07-28T21:52:44.759Z,4.67
2022-07-28T21:55:12.212Z,4.50
2022-07-28T21:57:39.249Z,4.70
2022-07-28T22:00:09.671Z,4.67
2022-07-28T22:02:36.863Z,4.47
2022-07-28T22:05:05.163Z,4.87
2022-07-28T22:07:32.389Z,4.90
2022-07-28T22:09:59.551Z,4.53
2022-07-28T22:12:26.652Z,5.17
2022-07-28T22:14:53.729Z,4.93
2022-07-28T22:17:20.790Z,4.83
2022-07-28T22:19:47.847Z,4.33
2022-07-28T22:22:18.342Z,4.57
2022-07-28T22:24:46.173Z,4.73
2022-07-28T22:27:13.225Z,5.03
2022-07-28T22:29:40.359Z,5.80
2022-07-28T22:32:13.229Z,5.20
2022-07-28T22:34:40.339Z,5.30
2022-07-28T22:37:12.890Z,5.60
2022-07-28T22:39:40.599Z,5.37
2022-07-28T22:42:07.680Z,5.10
2022-07-28T22:44:34.665Z,5.10
2022-07-28T22:47:01.781Z,5.37
2022-07-28T22:49:28.895Z,5.50
2022-07-28T22:51:55.954Z,5.83
2022-07-28T22:54:22.960Z,4.93
2022-07-28T22:56:50.455Z,4.63
2022-07-28T22:59:17.820Z,5.30
2022-07-28T23:01:45.364Z,4.90
2022-07-28T23:04:13.502Z,6.07
2022-07-28T23:06:41.910Z,5.10
2022-07-28T23:09:09.054Z,5.03
2022-07-28T23:11:36.081Z,5.53
2022-07-28T23:14:03.161Z,5.63
2022-07-28T23:16:30.403Z,5.73
2022-07-28T23:18:57.660Z,4.87
2022-07-28T23:21:24.766Z,5.37
2022-07-28T23:23:51.846Z,6.67
2022-07-28T23:26:18.884Z,6.00
2022-07-28T23:28:45.961Z,5.53
2022-07-28T23:31:13.102Z,6.23
2022-07-28T23:33:56.275Z,5.53
2022-07-28T23:36:26.468Z,6.23
2022-07-28T23:38:59.082Z,5.67
2022-07-28T23:41:27.028Z,6.40
2022-07-28T23:43:54.339Z,6.33
2022-07-28T23:46:21.792Z,6.43
2022-07-28T23:48:50.004Z,7.17
2022-07-28T23:51:17.129Z,6.63
2022-07-28T23:53:44.346Z,7.30
2022-07-28T23:56:11.421Z,7.30
2022-07-28T23:58:38.481Z,6.23
